sensor_id;sensor_type;location;lat;lon;timestamp;P1;durP1;ratioP1;P2;durP2;ratioP2
16029;SDS011;34770;49.272;11.070;2023-05-07T00:00:32;6.95;;;4.20;;
16029;SDS011;34770;49.272;11.070;2023-05-07T00:02:58;4.55;;;4.15;;
16029;SDS011;34770;49.272;11.070;2023-05-07T00:05:24;4.50;;;4.10;;
16029;SDS011;34770;49.272;11.070;2023-05-07T00:07:49;4.35;;;3.95;;
16029;SDS011;34770;49.272;11.070;2023-05-07T00:10:17;5.55;;;4.32;;
16029;SDS011;34770;49.272;11.070;2023-05-07T00:12:44;4.78;;;4.35;;
16029;SDS011;34770;49.272;11.070;2023-05-07T00:15:09;6.35;;;4.50;;
16029;SDS011;34770;49.272;11.070;2023-05-07T00:17:35;4.45;;;4.05;;
16029;SDS011;34770;49.272;11.070;2023-05-07T00:20:01;5.03;;;3.95;;
16029;SDS011;34770;49.272;11.070;2023-05-07T00:22:26;4.57;;;3.88;;
16029;SDS011;34770;49.272;11.070;2023-05-07T00:24:52;5.32;;;4.22;;
16029;SDS011;34770;49.272;11.070;2023-05-07T00:27:17;4.93;;;4.05;;
16029;SDS011;34770;49.272;11.070;2023-05-07T00:29:43;4.80;;;4.38;;
16029;SDS011;34770;49.272;11.070;2023-05-07T00:32:08;4.57;;;4.15;;
16029;SDS011;34770;49.272;11.070;2023-05-07T00:34:33;7.07;;;4.72;;
16029;SDS011;34770;49.272;11.070;2023-05-07T00:36:59;4.72;;;4.32;;
16029;SDS011;34770;49.272;11.070;2023-05-07T00:39:26;4.78;;;4.30;;
16029;SDS011;34770;49.272;11.070;2023-05-07T00:41:51;4.50;;;4.10;;
16029;SDS011;34770;49.272;11.070;2023-05-07T00:44:17;5.97;;;5.35;;
16029;SDS011;34770;49.272;11.070;2023-05-07T00:46:43;6.32;;;4.43;;
16029;SDS011;34770;49.272;11.070;2023-05-07T00:49:09;8.02;;;4.53;;
16029;SDS011;34770;49.272;11.070;2023-05-07T00:51:35;7.10;;;4.45;;
16029;SDS011;34770;49.272;11.070;2023-05-07T00:54:02;4.32;;;3.60;;
16029;SDS011;34770;49.272;11.070;2023-05-07T00:56:28;4.60;;;4.20;;
16029;SDS011;34770;49.272;11.070;2023-05-07T00:58:54;4.55;;;4.15;;
16029;SDS011;34770;49.272;11.070;2023-05-07T01:01:19;5.30;;;4.50;;
16029;SDS011;34770;49.272;11.070;2023-05-07T01:03:45;7.35;;;5.00;;
16029;SDS011;34770;49.272;11.070;2023-05-07T01:06:10;5.05;;;4.55;;
16029;SDS011;34770;49.272;11.070;2023-05-07T01:08:38;5.35;;;4.47;;
16029;SDS011;34770;49.272;11.070;2023-05-07T01:11:05;5.05;;;4.63;;
16029;SDS011;34770;49.272;11.070;2023-05-07T01:13:32;4.28;;;3.88;;
16029;SDS011;34770;49.272;11.070;2023-05-07T01:16:00;4.70;;;4.30;;
16029;SDS011;34770;49.272;11.070;2023-05-07T01:18:25;4.43;;;3.97;;
16029;SDS011;34770;49.272;11.070;2023-05-07T01:20:51;4.88;;;4.28;;
16029;SDS011;34770;49.272;11.070;2023-05-07T01:23:17;4.40;;;4.03;;
16029;SDS011;34770;49.272;11.070;2023-05-07T01:25:48;5.43;;;4.47;;
16029;SDS011;34770;49.272;11.070;2023-05-07T01:28:16;5.10;;;4.65;;
16029;SDS011;34770;49.272;11.070;2023-05-07T01:30:41;6.22;;;4.05;;
16029;SDS011;34770;49.272;11.070;2023-05-07T01:33:10;4.40;;;3.95;;
16029;SDS011;34770;49.272;11.070;2023-05-07T01:35:41;4.97;;;4.47;;
16029;SDS011;34770;49.272;11.070;2023-05-07T01:38:11;4.68;;;3.75;;
16029;SDS011;34770;49.272;11.070;2023-05-07T01:40:37;4.53;;;4.13;;
16029;SDS011;34770;49.272;11.070;2023-05-07T01:43:03;5.80;;;3.97;;
16029;SDS011;34770;49.272;11.070;2023-05-07T01:45:30;4.25;;;3.85;;
16029;SDS011;34770;49.272;11.070;2023-05-07T01:47:57;5.68;;;3.78;;
16029;SDS011;34770;49.272;11.070;2023-05-07T01:50:23;3.60;;;3.30;;
16029;SDS011;34770;49.272;11.070;2023-05-07T01:52:50;6.25;;;4.18;;
16029;SDS011;34770;49.272;11.070;2023-05-07T01:55:17;4.25;;;3.88;;
16029;SDS011;34770;49.272;11.070;2023-05-07T01:57:42;4.13;;;3.83;;
16029;SDS011;34770;49.272;11.070;2023-05-07T02:00:08;5.72;;;3.97;;
16029;SDS011;34770;49.272;11.070;2023-05-07T02:02:34;9.45;;;3.65;;
16029;SDS011;34770;49.272;11.070;2023-05-07T02:04:59;4.80;;;4.40;;
16029;SDS011;34770;49.272;11.070;2023-05-07T02:07:26;4.13;;;3.72;;
16029;SDS011;34770;49.272;11.070;2023-05-07T02:09:52;4.90;;;4.50;;
16029;SDS011;34770;49.272;11.070;2023-05-07T02:12:37;5.45;;;4.90;;
16029;SDS011;34770;49.272;11.070;2023-05-07T02:15:38;5.88;;;4.47;;
16029;SDS011;34770;49.272;11.070;2023-05-07T02:18:04;7.60;;;4.70;;
16029;SDS011;34770;49.272;11.070;2023-05-07T02:20:34;4.38;;;3.97;;
16029;SDS011;34770;49.272;11.070;2023-05-07T02:22:59;4.57;;;4.18;;
16029;SDS011;34770;49.272;11.070;2023-05-07T02:25:25;4.57;;;4.10;;
16029;SDS011;34770;49.272;11.070;2023-05-07T02:27:51;8.55;;;4.32;;
16029;SDS011;34770;49.272;11.070;2023-05-07T02:30:16;3.65;;;3.35;;
16029;SDS011;34770;49.272;11.070;2023-05-07T02:32:42;4.53;;;4.13;;
16029;SDS011;34770;49.272;11.070;2023-05-07T02:35:07;8.82;;;4.28;;
16029;SDS011;34770;49.272;11.070;2023-05-07T02:37:33;5.35;;;4.40;;
16029;SDS011;34770;49.272;11.070;2023-05-07T02:39:58;4.35;;;3.80;;
16029;SDS011;34770;49.272;11.070;2023-05-07T02:42:24;4.60;;;4.20;;
16029;SDS011;34770;49.272;11.070;2023-05-07T02:44:49;6.85;;;4.38;;
16029;SDS011;34770;49.272;11.070;2023-05-07T02:47:15;4.85;;;4.40;;
16029;SDS011;34770;49.272;11.070;2023-05-07T02:49:40;7.28;;;4.78;;
16029;SDS011;34770;49.272;11.070;2023-05-07T02:52:06;4.93;;;4.43;;
16029;SDS011;34770;49.272;11.070;2023-05-07T02:54:32;4.95;;;4.55;;
16029;SDS011;34770;49.272;11.070;2023-05-07T02:56:57;6.20;;;4.68;;
16029;SDS011;34770;49.272;11.070;2023-05-07T02:59:23;5.05;;;3.80;;
16029;SDS011;34770;49.272;11.070;2023-05-07T03:01:50;7.05;;;4.78;;
16029;SDS011;34770;49.272;11.070;2023-05-07T03:04:15;6.15;;;4.32;;
16029;SDS011;34770;49.272;11.070;2023-05-07T03:06:41;7.13;;;4.80;;
16029;SDS011;34770;49.272;11.070;2023-05-07T03:09:06;5.03;;;4.10;;
16029;SDS011;34770;49.272;11.070;2023-05-07T03:11:32;4.97;;;4.43;;
16029;SDS011;34770;49.272;11.070;2023-05-07T03:13:57;4.07;;;3.78;;
16029;SDS011;34770;49.272;11.070;2023-05-07T03:16:23;4.40;;;4.00;;
16029;SDS011;34770;49.272;11.070;2023-05-07T03:18:48;4.50;;;4.10;;
16029;SDS011;34770;49.272;11.070;2023-05-07T03:21:14;4.47;;;4.07;;
16029;SDS011;34770;49.272;11.070;2023-05-07T03:23:39;5.03;;;4.28;;
16029;SDS011;34770;49.272;11.070;2023-05-07T03:26:05;6.45;;;4.45;;
16029;SDS011;34770;49.272;11.070;2023-05-07T03:28:30;4.70;;;4.15;;
16029;SDS011;34770;49.272;11.070;2023-05-07T03:30:56;5.38;;;4.43;;
16029;SDS011;34770;49.272;11.070;2023-05-07T03:33:21;5.90;;;4.32;;
16029;SDS011;34770;49.272;11.070;2023-05-07T03:35:47;5.68;;;4.32;;
16029;SDS011;34770;49.272;11.070;2023-05-07T03:38:12;4.18;;;3.75;;
16029;SDS011;34770;49.272;11.070;2023-05-07T03:40:37;4.63;;;4.22;;
16029;SDS011;34770;49.272;11.070;2023-05-07T03:43:03;4.47;;;4.15;;
16029;SDS011;34770;49.272;11.070;2023-05-07T03:45:28;4.82;;;4.38;;
16029;SDS011;34770;49.272;11.070;2023-05-07T03:47:54;4.82;;;4.25;;
16029;SDS011;34770;49.272;11.070;2023-05-07T03:50:19;8.50;;;3.70;;
16029;SDS011;34770;49.272;11.070;2023-05-07T03:52:45;5.05;;;4.22;;
16029;SDS011;34770;49.272;11.070;2023-05-07T03:55:10;6.05;;;4.35;;
16029;SDS011;34770;49.272;11.070;2023-05-07T03:57:36;6.00;;;4.57;;
16029;SDS011;34770;49.272;11.070;2023-05-07T04:00:01;5.60;;;4.50;;
16029;SDS011;34770;49.272;11.070;2023-05-07T04:02:28;5.40;;;4.53;;
16029;SDS011;34770;49.272;11.070;2023-05-07T04:04:54;5.13;;;4.63;;
16029;SDS011;34770;49.272;11.070;2023-05-07T04:07:19;5.72;;;4.30;;
16029;SDS011;34770;49.272;11.070;2023-05-07T04:09:45;5.80;;;4.80;;
16029;SDS011;34770;49.272;11.070;2023-05-07T04:12:10;6.28;;;4.10;;
16029;SDS011;34770;49.272;11.070;2023-05-07T04:14:36;4.72;;;4.32;;
16029;SDS011;34770;49.272;11.070;2023-05-07T04:17:01;4.80;;;4.30;;
16029;SDS011;34770;49.272;11.070;2023-05-07T04:19:27;4.60;;;4.07;;
16029;SDS011;34770;49.272;11.070;2023-05-07T04:21:53;4.95;;;4.30;;
16029;SDS011;34770;49.272;11.070;2023-05-07T04:24:18;5.35;;;4.85;;
16029;SDS011;34770;49.272;11.070;2023-05-07T04:26:44;7.95;;;5.00;;
16029;SDS011;34770;49.272;11.070;2023-05-07T04:29:10;5.53;;;4.60;;
16029;SDS011;34770;49.272;11.070;2023-05-07T04:31:36;5.30;;;3.90;;
16029;SDS011;34770;49.272;11.070;2023-05-07T04:34:02;6.15;;;4.47;;
16029;SDS011;34770;49.272;11.070;2023-05-07T04:36:27;5.35;;;4.82;;
16029;SDS011;34770;49.272;11.070;2023-05-07T04:38:54;6.63;;;4.40;;
16029;SDS011;34770;49.272;11.070;2023-05-07T04:41:20;6.28;;;4.38;;
16029;SDS011;34770;49.272;11.070;2023-05-07T04:43:45;4.70;;;4.22;;
16029;SDS011;34770;49.272;11.070;2023-05-07T04:46:11;5.00;;;4.53;;
16029;SDS011;34770;49.272;11.070;2023-05-07T04:48:36;4.68;;;4.28;;
16029;SDS011;34770;49.272;11.070;2023-05-07T04:51:02;5.05;;;4.32;;
16029;SDS011;34770;49.272;11.070;2023-05-07T04:53:28;6.72;;;4.28;;
16029;SDS011;34770;49.272;11.070;2023-05-07T04:55:56;8.30;;;4.05;;
16029;SDS011;34770;49.272;11.070;2023-05-07T04:58:22;5.57;;;4.45;;
16029;SDS011;34770;49.272;11.070;2023-05-07T05:00:48;5.97;;;4.30;;
16029;SDS011;34770;49.272;11.070;2023-05-07T05:03:14;5.45;;;4.93;;
16029;SDS011;34770;49.272;11.070;2023-05-07T05:05:40;7.28;;;4.20;;
16029;SDS011;34770;49.272;11.070;2023-05-07T05:08:05;7.75;;;4.00;;
16029;SDS011;34770;49.272;11.070;2023-05-07T05:10:31;5.10;;;4.63;;
16029;SDS011;34770;49.272;11.070;2023-05-07T05:12:57;4.47;;;4.00;;
16029;SDS011;34770;49.272;11.070;2023-05-07T05:15:22;4.78;;;4.32;;
16029;SDS011;34770;49.272;11.070;2023-05-07T05:17:48;4.78;;;4.15;;
16029;SDS011;34770;49.272;11.070;2023-05-07T05:20:13;4.70;;;4.30;;
16029;SDS011;34770;49.272;11.070;2023-05-07T05:22:39;4.00;;;3.70;;
16029;SDS011;34770;49.272;11.070;2023-05-07T05:25:05;4.10;;;3.70;;
16029;SDS011;34770;49.272;11.070;2023-05-07T05:27:32;4.70;;;4.30;;
16029;SDS011;34770;49.272;11.070;2023-05-07T05:29:58;5.20;;;4.70;;
16029;SDS011;34770;49.272;11.070;2023-05-07T05:32:23;5.22;;;3.95;;
16029;SDS011;34770;49.272;11.070;2023-05-07T05:34:48;6.00;;;3.42;;
16029;SDS011;34770;49.272;11.070;2023-05-07T05:37:14;3.92;;;3.40;;
16029;SDS011;34770;49.272;11.070;2023-05-07T05:39:40;4.85;;;4.25;;
16029;SDS011;34770;49.272;11.070;2023-05-07T05:42:05;4.22;;;3.83;;
16029;SDS011;34770;49.272;11.070;2023-05-07T05:44:30;5.28;;;3.95;;
16029;SDS011;34770;49.272;11.070;2023-05-07T05:46:56;4.43;;;3.65;;
16029;SDS011;34770;49.272;11.070;2023-05-07T05:49:24;4.38;;;3.85;;
16029;SDS011;34770;49.272;11.070;2023-05-07T05:51:49;4.07;;;3.67;;
16029;SDS011;34770;49.272;11.070;2023-05-07T05:54:15;3.75;;;3.45;;
16029;SDS011;34770;49.272;11.070;2023-05-07T05:56:41;5.40;;;3.42;;
16029;SDS011;34770;49.272;11.070;2023-05-07T05:59:07;4.25;;;3.85;;
16029;SDS011;34770;49.272;11.070;2023-05-07T06:01:32;4.55;;;4.15;;
16029;SDS011;34770;49.272;11.070;2023-05-07T06:03:58;4.18;;;3.63;;
16029;SDS011;34770;49.272;11.070;2023-05-07T06:06:23;5.20;;;3.58;;
16029;SDS011;34770;49.272;11.070;2023-05-07T06:08:49;4.07;;;3.67;;
16029;SDS011;34770;49.272;11.070;2023-05-07T06:11:14;4.85;;;4.35;;
16029;SDS011;34770;49.272;11.070;2023-05-07T06:13:40;4.72;;;4.32;;
16029;SDS011;34770;49.272;11.070;2023-05-07T06:16:05;5.18;;;4.20;;
16029;SDS011;34770;49.272;11.070;2023-05-07T06:18:31;5.20;;;4.70;;
16029;SDS011;34770;49.272;11.070;2023-05-07T06:20:57;5.40;;;4.80;;
16029;SDS011;34770;49.272;11.070;2023-05-07T06:23:22;5.75;;;5.10;;
16029;SDS011;34770;49.272;11.070;2023-05-07T06:25:48;4.90;;;4.50;;
16029;SDS011;34770;49.272;11.070;2023-05-07T06:28:15;6.70;;;4.50;;
16029;SDS011;34770;49.272;11.070;2023-05-07T06:30:40;8.00;;;5.20;;
16029;SDS011;34770;49.272;11.070;2023-05-07T06:33:06;6.00;;;5.40;;
16029;SDS011;34770;49.272;11.070;2023-05-07T06:35:31;5.35;;;4.72;;
16029;SDS011;34770;49.272;11.070;2023-05-07T06:37:56;6.28;;;5.32;;
16029;SDS011;34770;49.272;11.070;2023-05-07T06:40:22;5.25;;;4.82;;
16029;SDS011;34770;49.272;11.070;2023-05-07T06:42:47;6.18;;;5.57;;
16029;SDS011;34770;49.272;11.070;2023-05-07T06:45:13;8.93;;;5.60;;
16029;SDS011;34770;49.272;11.070;2023-05-07T06:47:39;7.97;;;5.68;;
16029;SDS011;34770;49.272;11.070;2023-05-07T06:50:04;5.75;;;4.95;;
16029;SDS011;34770;49.272;11.070;2023-05-07T06:52:30;6.47;;;5.60;;
16029;SDS011;34770;49.272;11.070;2023-05-07T06:54:55;7.40;;;4.72;;
16029;SDS011;34770;49.272;11.070;2023-05-07T06:57:21;5.72;;;4.95;;
16029;SDS011;34770;49.272;11.070;2023-05-07T06:59:46;7.05;;;6.13;;
16029;SDS011;34770;49.272;11.070;2023-05-07T07:02:12;5.80;;;5.20;;
16029;SDS011;34770;49.272;11.070;2023-05-07T07:04:37;6.05;;;5.47;;
16029;SDS011;34770;49.272;11.070;2023-05-07T07:07:03;5.35;;;4.68;;
16029;SDS011;34770;49.272;11.070;2023-05-07T07:09:28;5.18;;;4.72;;
16029;SDS011;34770;49.272;11.070;2023-05-07T07:11:54;7.70;;;5.47;;
16029;SDS011;34770;49.272;11.070;2023-05-07T07:14:19;5.97;;;5.38;;
16029;SDS011;34770;49.272;11.070;2023-05-07T07:16:45;6.18;;;5.60;;
16029;SDS011;34770;49.272;11.070;2023-05-07T07:19:11;6.10;;;4.95;;
16029;SDS011;34770;49.272;11.070;2023-05-07T07:21:37;5.85;;;5.35;;
16029;SDS011;34770;49.272;11.070;2023-05-07T07:24:02;6.15;;;5.07;;
16029;SDS011;34770;49.272;11.070;2023-05-07T07:26:28;6.13;;;5.50;;
16029;SDS011;34770;49.272;11.070;2023-05-07T07:28:54;5.53;;;5.03;;
16029;SDS011;34770;49.272;11.070;2023-05-07T07:31:19;5.57;;;5.05;;
16029;SDS011;34770;49.272;11.070;2023-05-07T07:33:45;5.47;;;4.95;;
16029;SDS011;34770;49.272;11.070;2023-05-07T07:36:10;7.63;;;5.18;;
16029;SDS011;34770;49.272;11.070;2023-05-07T07:38:36;6.07;;;5.47;;
16029;SDS011;34770;49.272;11.070;2023-05-07T07:41:01;5.30;;;4.75;;
16029;SDS011;34770;49.272;11.070;2023-05-07T07:43:27;5.55;;;5.07;;
16029;SDS011;34770;49.272;11.070;2023-05-07T07:45:53;6.55;;;5.95;;
16029;SDS011;34770;49.272;11.070;2023-05-07T07:48:18;6.05;;;5.45;;
16029;SDS011;34770;49.272;11.070;2023-05-07T07:50:44;6.32;;;5.13;;
16029;SDS011;34770;49.272;11.070;2023-05-07T07:53:09;6.32;;;5.68;;
16029;SDS011;34770;49.272;11.070;2023-05-07T07:55:39;7.45;;;5.53;;
16029;SDS011;34770;49.272;11.070;2023-05-07T07:58:05;6.13;;;5.03;;
16029;SDS011;34770;49.272;11.070;2023-05-07T08:00:30;6.10;;;4.78;;
16029;SDS011;34770;49.272;11.070;2023-05-07T08:02:55;6.75;;;6.13;;
16029;SDS011;34770;49.272;11.070;2023-05-07T08:05:21;9.23;;;5.75;;
16029;SDS011;34770;49.272;11.070;2023-05-07T08:07:47;6.70;;;6.10;;
16029;SDS011;34770;49.272;11.070;2023-05-07T08:10:17;7.90;;;6.63;;
16029;SDS011;34770;49.272;11.070;2023-05-07T08:12:46;6.80;;;5.78;;
16029;SDS011;34770;49.272;11.070;2023-05-07T08:15:15;6.85;;;6.20;;
16029;SDS011;34770;49.272;11.070;2023-05-07T08:17:41;8.05;;;6.88;;
16029;SDS011;34770;49.272;11.070;2023-05-07T08:20:07;6.70;;;6.10;;
16029;SDS011;34770;49.272;11.070;2023-05-07T08:22:33;6.70;;;5.80;;
16029;SDS011;34770;49.272;11.070;2023-05-07T08:25:00;11.10;;;6.65;;
16029;SDS011;34770;49.272;11.070;2023-05-07T08:27:26;7.47;;;6.75;;
16029;SDS011;34770;49.272;11.070;2023-05-07T08:29:51;8.20;;;6.80;;
16029;SDS011;34770;49.272;11.070;2023-05-07T08:32:17;6.75;;;6.13;;
16029;SDS011;34770;49.272;11.070;2023-05-07T08:34:42;8.00;;;5.68;;
16029;SDS011;34770;49.272;11.070;2023-05-07T08:37:08;6.30;;;5.60;;
16029;SDS011;34770;49.272;11.070;2023-05-07T08:39:33;5.45;;;4.95;;
16029;SDS011;34770;49.272;11.070;2023-05-07T08:42:00;6.63;;;5.68;;
16029;SDS011;34770;49.272;11.070;2023-05-07T08:44:27;6.65;;;5.40;;
16029;SDS011;34770;49.272;11.070;2023-05-07T08:46:56;7.15;;;5.85;;
16029;SDS011;34770;49.272;11.070;2023-05-07T08:49:22;6.97;;;6.30;;
16029;SDS011;34770;49.272;11.070;2023-05-07T08:51:48;7.22;;;5.55;;
16029;SDS011;34770;49.272;11.070;2023-05-07T08:54:15;6.93;;;5.53;;
16029;SDS011;34770;49.272;11.070;2023-05-07T08:56:41;8.20;;;5.15;;
16029;SDS011;34770;49.272;11.070;2023-05-07T08:59:06;6.30;;;5.22;;
16029;SDS011;34770;49.272;11.070;2023-05-07T09:01:32;5.55;;;5.05;;
16029;SDS011;34770;49.272;11.070;2023-05-07T09:04:00;5.35;;;4.88;;
16029;SDS011;34770;49.272;11.070;2023-05-07T09:06:26;5.72;;;5.22;;
16029;SDS011;34770;49.272;11.070;2023-05-07T09:08:54;5.00;;;4.50;;
16029;SDS011;34770;49.272;11.070;2023-05-07T09:11:23;6.85;;;5.70;;
16029;SDS011;34770;49.272;11.070;2023-05-07T09:13:53;5.72;;;5.18;;
16029;SDS011;34770;49.272;11.070;2023-05-07T09:16:21;6.30;;;5.63;;
16029;SDS011;34770;49.272;11.070;2023-05-07T09:18:48;5.63;;;4.93;;
16029;SDS011;34770;49.272;11.070;2023-05-07T09:21:17;6.15;;;5.45;;
16029;SDS011;34770;49.272;11.070;2023-05-07T09:23:44;5.20;;;4.68;;
16029;SDS011;34770;49.272;11.070;2023-05-07T09:26:09;5.32;;;4.82;;
16029;SDS011;34770;49.272;11.070;2023-05-07T09:28:40;5.47;;;4.60;;
16029;SDS011;34770;49.272;11.070;2023-05-07T09:31:09;5.60;;;5.10;;
16029;SDS011;34770;49.272;11.070;2023-05-07T09:33:36;5.05;;;4.65;;
16029;SDS011;34770;49.272;11.070;2023-05-07T09:36:02;5.47;;;4.97;;
16029;SDS011;34770;49.272;11.070;2023-05-07T09:38:29;5.30;;;4.80;;
16029;SDS011;34770;49.272;11.070;2023-05-07T09:41:01;6.97;;;5.00;;
16029;SDS011;34770;49.272;11.070;2023-05-07T09:43:33;4.95;;;4.45;;
16029;SDS011;34770;49.272;11.070;2023-05-07T09:46:02;5.43;;;4.53;;
16029;SDS011;34770;49.272;11.070;2023-05-07T09:48:38;4.75;;;4.25;;
16029;SDS011;34770;49.272;11.070;2023-05-07T09:51:06;4.40;;;4.00;;
16029;SDS011;34770;49.272;11.070;2023-05-07T09:53:43;6.43;;;4.97;;
16029;SDS011;34770;49.272;11.070;2023-05-07T09:56:11;8.82;;;5.28;;
16029;SDS011;34770;49.272;11.070;2023-05-07T09:58:38;5.55;;;4.35;;
16029;SDS011;34770;49.272;11.070;2023-05-07T10:01:06;5.00;;;4.50;;
16029;SDS011;34770;49.272;11.070;2023-05-07T10:03:32;6.43;;;4.72;;
16029;SDS011;34770;49.272;11.070;2023-05-07T10:06:01;5.50;;;4.15;;
16029;SDS011;34770;49.272;11.070;2023-05-07T10:08:28;4.63;;;3.50;;
16029;SDS011;34770;49.272;11.070;2023-05-07T10:10:55;4.72;;;4.00;;
16029;SDS011;34770;49.272;11.070;2023-05-07T10:13:21;4.00;;;3.70;;
16029;SDS011;34770;49.272;11.070;2023-05-07T10:15:47;4.72;;;3.88;;
16029;SDS011;34770;49.272;11.070;2023-05-07T10:18:13;4.95;;;3.85;;
16029;SDS011;34770;49.272;11.070;2023-05-07T10:20:39;4.38;;;3.55;;
16029;SDS011;34770;49.272;11.070;2023-05-07T10:23:07;4.00;;;3.45;;
16029;SDS011;34770;49.272;11.070;2023-05-07T10:25:37;2.95;;;2.45;;
16029;SDS011;34770;49.272;11.070;2023-05-07T10:28:07;5.97;;;3.10;;
16029;SDS011;34770;49.272;11.070;2023-05-07T10:30:40;3.05;;;2.85;;
16029;SDS011;34770;49.272;11.070;2023-05-07T10:33:26;2.92;;;2.72;;
16029;SDS011;34770;49.272;11.070;2023-05-07T10:35:55;2.67;;;2.47;;
16029;SDS011;34770;49.272;11.070;2023-05-07T10:38:24;3.47;;;2.33;;
16029;SDS011;34770;49.272;11.070;2023-05-07T10:40:51;3.13;;;2.67;;
16029;SDS011;34770;49.272;11.070;2023-05-07T10:43:17;2.72;;;2.50;;
16029;SDS011;34770;49.272;11.070;2023-05-07T10:45:43;2.53;;;2.33;;
16029;SDS011;34770;49.272;11.070;2023-05-07T10:50:41;2.30;;;2.10;;
16029;SDS011;34770;49.272;11.070;2023-05-07T10:55:46;5.97;;;2.78;;
16029;SDS011;34770;49.272;11.070;2023-05-07T11:01:01;2.58;;;1.45;;
16029;SDS011;34770;49.272;11.070;2023-05-07T11:03:28;1.40;;;1.30;;
16029;SDS011;34770;49.272;11.070;2023-05-07T11:06:13;2.10;;;1.90;;
16029;SDS011;34770;49.272;11.070;2023-05-07T11:08:52;2.75;;;2.00;;
16029;SDS011;34770;49.272;11.070;2023-05-07T11:17:07;4.43;;;2.10;;
16029;SDS011;34770;49.272;11.070;2023-05-07T11:19:52;2.40;;;1.92;;
16029;SDS011;34770;49.272;11.070;2023-05-07T11:25:00;2.17;;;1.70;;
16029;SDS011;34770;49.272;11.070;2023-05-07T11:27:29;1.95;;;1.60;;
16029;SDS011;34770;49.272;11.070;2023-05-07T11:29:55;2.50;;;1.70;;
16029;SDS011;34770;49.272;11.070;2023-05-07T11:32:28;2.30;;;2.10;;
16029;SDS011;34770;49.272;11.070;2023-05-07T11:34:54;2.22;;;1.88;;
16029;SDS011;34770;49.272;11.070;2023-05-07T11:37:22;2.30;;;1.70;;
16029;SDS011;34770;49.272;11.070;2023-05-07T11:39:48;6.53;;;2.22;;
16029;SDS011;34770;49.272;11.070;2023-05-07T11:42:29;3.08;;;1.88;;
16029;SDS011;34770;49.272;11.070;2023-05-07T11:44:59;3.20;;;1.60;;
16029;SDS011;34770;49.272;11.070;2023-05-07T11:47:25;2.05;;;1.75;;
16029;SDS011;34770;49.272;11.070;2023-05-07T11:49:54;1.70;;;1.60;;
16029;SDS011;34770;49.272;11.070;2023-05-07T11:52:23;2.80;;;1.85;;
16029;SDS011;34770;49.272;11.070;2023-05-07T11:54:53;2.90;;;1.90;;
16029;SDS011;34770;49.272;11.070;2023-05-07T11:57:21;1.70;;;1.60;;
16029;SDS011;34770;49.272;11.070;2023-05-07T11:59:47;1.92;;;1.83;;
16029;SDS011;34770;49.272;11.070;2023-05-07T12:02:17;2.95;;;1.83;;
16029;SDS011;34770;49.272;11.070;2023-05-07T12:04:42;4.53;;;2.10;;
16029;SDS011;34770;49.272;11.070;2023-05-07T12:07:14;2.97;;;1.98;;
16029;SDS011;34770;49.272;11.070;2023-05-07T12:09:46;3.53;;;2.25;;
16029;SDS011;34770;49.272;11.070;2023-05-07T12:12:13;2.67;;;1.70;;
16029;SDS011;34770;49.272;11.070;2023-05-07T12:14:42;1.50;;;1.40;;
16029;SDS011;34770;49.272;11.070;2023-05-07T12:17:10;3.03;;;1.50;;
16029;SDS011;34770;49.272;11.070;2023-05-07T12:19:37;2.90;;;1.60;;
16029;SDS011;34770;49.272;11.070;2023-05-07T12:22:03;1.42;;;1.33;;
16029;SDS011;34770;49.272;11.070;2023-05-07T12:24:45;1.70;;;1.27;;
16029;SDS011;34770;49.272;11.070;2023-05-07T12:27:15;1.73;;;1.50;;
16029;SDS011;34770;49.272;11.070;2023-05-07T12:29:48;2.15;;;1.63;;
16029;SDS011;34770;49.272;11.070;2023-05-07T12:32:19;2.45;;;1.38;;
16029;SDS011;34770;49.272;11.070;2023-05-07T12:34:46;3.40;;;1.60;;
16029;SDS011;34770;49.272;11.070;2023-05-07T12:37:14;1.90;;;1.40;;
16029;SDS011;34770;49.272;11.070;2023-05-07T12:39:49;1.70;;;1.60;;
16029;SDS011;34770;49.272;11.070;2023-05-07T12:42:28;1.95;;;1.50;;
16029;SDS011;34770;49.272;11.070;2023-05-07T12:44:58;1.80;;;1.50;;
16029;SDS011;34770;49.272;11.070;2023-05-07T12:47:23;2.65;;;1.73;;
16029;SDS011;34770;49.272;11.070;2023-05-07T12:49:49;1.77;;;1.25;;
16029;SDS011;34770;49.272;11.070;2023-05-07T12:52:14;1.75;;;1.50;;
16029;SDS011;34770;49.272;11.070;2023-05-07T12:54:40;2.75;;;1.67;;
16029;SDS011;34770;49.272;11.070;2023-05-07T12:57:07;1.75;;;1.65;;
16029;SDS011;34770;49.272;11.070;2023-05-07T12:59:35;2.80;;;2.00;;
16029;SDS011;34770;49.272;11.070;2023-05-07T13:02:01;2.25;;;1.30;;
16029;SDS011;34770;49.272;11.070;2023-05-07T13:04:27;2.72;;;1.92;;
16029;SDS011;34770;49.272;11.070;2023-05-07T13:06:52;3.30;;;1.98;;
16029;SDS011;34770;49.272;11.070;2023-05-07T13:09:18;2.47;;;1.48;;
16029;SDS011;34770;49.272;11.070;2023-05-07T13:11:43;1.65;;;1.42;;
16029;SDS011;34770;49.272;11.070;2023-05-07T13:14:09;1.80;;;1.70;;
16029;SDS011;34770;49.272;11.070;2023-05-07T13:16:34;1.75;;;1.65;;
16029;SDS011;34770;49.272;11.070;2023-05-07T13:18:59;2.55;;;1.48;;
16029;SDS011;34770;49.272;11.070;2023-05-07T13:21:25;1.60;;;1.40;;
16029;SDS011;34770;49.272;11.070;2023-05-07T13:23:51;1.70;;;1.60;;
16029;SDS011;34770;49.272;11.070;2023-05-07T13:26:17;1.60;;;1.20;;
16029;SDS011;34770;49.272;11.070;2023-05-07T13:28:43;1.55;;;1.33;;
16029;SDS011;34770;49.272;11.070;2023-05-07T13:31:08;1.40;;;1.30;;
16029;SDS011;34770;49.272;11.070;2023-05-07T13:33:34;4.80;;;1.33;;
16029;SDS011;34770;49.272;11.070;2023-05-07T13:36:00;1.77;;;1.48;;
16029;SDS011;34770;49.272;11.070;2023-05-07T13:38:26;1.50;;;1.15;;
16029;SDS011;34770;49.272;11.070;2023-05-07T13:40:51;1.33;;;1.23;;
16029;SDS011;34770;49.272;11.070;2023-05-07T13:43:17;2.13;;;1.80;;
16029;SDS011;34770;49.272;11.070;2023-05-07T13:45:43;2.28;;;1.83;;
16029;SDS011;34770;49.272;11.070;2023-05-07T13:48:09;4.72;;;1.45;;
16029;SDS011;34770;49.272;11.070;2023-05-07T13:50:35;3.83;;;1.58;;
16029;SDS011;34770;49.272;11.070;2023-05-07T13:53:00;1.50;;;1.40;;
16029;SDS011;34770;49.272;11.070;2023-05-07T13:55:28;1.60;;;1.50;;
16029;SDS011;34770;49.272;11.070;2023-05-07T13:57:57;1.83;;;1.60;;
16029;SDS011;34770;49.272;11.070;2023-05-07T14:00:24;1.65;;;1.50;;
16029;SDS011;34770;49.272;11.070;2023-05-07T14:02:51;1.33;;;1.23;;
16029;SDS011;34770;49.272;11.070;2023-05-07T14:05:17;2.70;;;1.83;;
16029;SDS011;34770;49.272;11.070;2023-05-07T14:07:42;2.75;;;1.80;;
16029;SDS011;34770;49.272;11.070;2023-05-07T14:10:08;2.47;;;1.92;;
16029;SDS011;34770;49.272;11.070;2023-05-07T14:12:34;2.88;;;1.63;;
16029;SDS011;34770;49.272;11.070;2023-05-07T14:15:00;3.88;;;2.03;;
16029;SDS011;34770;49.272;11.070;2023-05-07T14:17:25;3.65;;;1.65;;
16029;SDS011;34770;49.272;11.070;2023-05-07T14:19:52;2.90;;;1.90;;
16029;SDS011;34770;49.272;11.070;2023-05-07T14:22:21;2.30;;;2.10;;
16029;SDS011;34770;49.272;11.070;2023-05-07T14:24:47;2.45;;;2.25;;
16029;SDS011;34770;49.272;11.070;2023-05-07T14:27:13;2.08;;;1.90;;
16029;SDS011;34770;49.272;11.070;2023-05-07T14:29:38;3.00;;;2.15;;
16029;SDS011;34770;49.272;11.070;2023-05-07T14:32:04;2.17;;;2.08;;
16029;SDS011;34770;49.272;11.070;2023-05-07T14:34:31;2.95;;;2.25;;
16029;SDS011;34770;49.272;11.070;2023-05-07T14:36:57;1.90;;;1.80;;
16029;SDS011;34770;49.272;11.070;2023-05-07T14:39:23;2.50;;;2.30;;
16029;SDS011;34770;49.272;11.070;2023-05-07T14:41:49;2.67;;;2.30;;
16029;SDS011;34770;49.272;11.070;2023-05-07T14:44:14;2.08;;;1.88;;
16029;SDS011;34770;49.272;11.070;2023-05-07T14:46:40;3.55;;;2.20;;